Time;durP1;ratioP1;P1;durP2;ratioP2;P2;SDS_P1;SDS_P2;PMS_P1;PMS_P2;Temp;Humidity;BMP_temperature;BMP_pressure;BME280_temperature;BME280_humidity;BME280_pressure;Samples;Min_cycle;Max_cycle;Signal;HPM_P1;HPM_P2
2022/05/08 00:00:11;;;;;;;17.83;16.23;;;11.50;95.50;;;;;;5098515;28;20529;-47
2022/05/08 00:02:38;;;;;;;17.03;15.53;;;11.50;95.70;;;;;;5098392;28;20624;-46
2022/05/08 00:05:04;;;;;;;17.67;16.17;;;11.40;95.70;;;;;;5079990;28;20455;-46
2022/05/08 00:07:30;;;;;;;17.40;16.00;;;11.40;95.90;;;;;;5078945;28;20434;-47
2022/05/08 00:09:56;;;;;;;17.87;16.37;;;11.40;96.00;;;;;;5096972;28;20487;-47
2022/05/08 00:12:21;;;;;;;18.00;16.50;;;11.30;96.00;;;;;;5096775;28;20215;-46
2022/05/08 00:14:47;;;;;;;17.03;15.53;;;11.20;96.20;;;;;;5097109;28;20573;-46
2022/05/08 00:17:13;;;;;;;17.73;16.23;;;11.20;96.30;;;;;;5097710;28;20221;-46
2022/05/08 00:19:40;;;;;;;17.73;16.07;;;11.10;96.30;;;;;;5098209;28;20234;-47
2022/05/08 00:22:06;;;;;;;16.80;15.40;;;11.10;96.50;;;;;;5080251;28;20443;-46
2022/05/08 00:24:33;;;;;;;16.53;15.03;;;11.10;96.50;;;;;;5078484;28;20438;-46
2022/05/08 00:26:59;;;;;;;16.67;15.33;;;11.00;96.50;;;;;;5096468;28;20492;-47
2022/05/08 00:29:25;;;;;;;17.80;16.27;;;11.00;96.60;;;;;;5095764;28;20920;-46
2022/05/08 00:31:50;;;;;;;17.07;15.63;;;11.00;96.50;;;;;;5096209;28;20675;-47
2022/05/08 00:34:16;;;;;;;15.93;14.53;;;11.00;96.40;;;;;;5096071;28;20426;-47
2022/05/08 00:36:42;;;;;;;17.57;16.07;;;11.00;96.30;;;;;;5096541;28;20185;-46
2022/05/08 00:39:09;;;;;;;17.50;16.00;;;11.00;96.50;;;;;;5098011;28;20208;-47
2022/05/08 00:41:35;;;;;;;16.47;15.17;;;10.90;96.40;;;;;;5098376;28;20426;-47
2022/05/08 00:44:00;;;;;;;17.03;15.53;;;11.00;96.40;;;;;;5098166;28;20193;-46
2022/05/08 00:46:28;;;;;;;16.47;15.07;;;10.90;96.40;;;;;;5098181;28;20191;-46
2022/05/08 00:48:53;;;;;;;16.33;14.83;;;10.90;96.60;;;;;;5097776;28;20195;-47
2022/05/08 00:51:19;;;;;;;16.67;15.10;;;10.80;96.40;;;;;;5098163;28;20716;-46
2022/05/08 00:53:51;;;;;;;17.70;16.07;;;10.80;96.20;;;;;;5096864;28;20176;-46
2022/05/08 00:56:18;;;;;;;17.20;15.60;;;10.80;96.30;;;;;;5098398;28;20464;-46
2022/05/08 00:58:48;;;;;;;17.53;15.83;;;10.70;96.40;;;;;;5097727;28;20463;-46
2022/05/08 01:01:14;;;;;;;18.60;17.03;;;10.70;96.60;;;;;;5097841;28;20902;-47
2022/05/08 01:03:40;;;;;;;18.80;17.10;;;10.60;96.90;;;;;;5097367;28;20423;-46
2022/05/08 01:06:08;;;;;;;20.00;18.23;;;10.60;97.10;;;;;;5098076;28;20408;-46
2022/05/08 01:08:35;;;;;;;20.50;18.50;;;10.50;97.40;;;;;;5097888;28;20461;-46
2022/05/08 01:11:02;;;;;;;19.07;17.27;;;10.50;97.60;;;;;;5097724;28;20419;-46
2022/05/08 01:13:28;;;;;;;21.17;19.13;;;10.50;97.70;;;;;;5097521;28;20432;-47
2022/05/08 01:15:55;;;;;;;22.00;20.00;;;10.50;97.60;;;;;;5097664;28;20411;-47
2022/05/08 01:18:21;;;;;;;19.23;17.63;;;10.50;97.60;;;;;;5097499;28;20570;-47
2022/05/08 01:20:47;;;;;;;18.93;17.20;;;10.50;97.60;;;;;;5097708;28;20428;-46
2022/05/08 01:23:15;;;;;;;19.53;17.83;;;10.50;97.80;;;;;;5097613;28;20172;-47
2022/05/08 01:25:54;;;;;;;20.57;18.87;;;10.50;97.80;;;;;;5079825;28;20427;-47
2022/05/08 01:28:21;;;;;;;18.97;17.30;;;10.50;97.60;;;;;;5097355;28;20739;-46
2022/05/08 01:30:49;;;;;;;20.17;18.37;;;10.50;97.60;;;;;;5096953;28;20462;-47
2022/05/08 01:33:16;;;;;;;19.77;18.17;;;10.40;97.40;;;;;;5096564;28;20462;-47
2022/05/08 01:35:42;;;;;;;19.73;17.83;;;10.40;97.60;;;;;;5097660;28;20418;-46
2022/05/08 01:38:09;;;;;;;19.83;18.30;;;10.30;97.60;;;;;;5097693;28;20429;-47
2022/05/08 01:40:35;;;;;;;19.50;17.80;;;10.30;97.70;;;;;;5097596;28;20437;-46
2022/05/08 01:43:00;;;;;;;19.73;18.13;;;10.30;97.60;;;;;;5097934;28;20421;-47
2022/05/08 01:45:26;;;;;;;19.67;17.97;;;10.30;97.60;;;;;;5097819;28;20427;-46
2022/05/08 01:50:37;;;;;;;18.70;17.00;;;10.20;97.70;;;;;;5097321;28;20439;-47
2022/05/08 01:53:03;;;;;;;19.43;17.83;;;10.20;97.70;;;;;;5096616;28;20965;-47
2022/05/08 01:55:28;;;;;;;19.87;18.17;;;10.20;97.70;;;;;;5096605;28;20419;-47
2022/05/08 01:57:54;;;;;;;18.73;17.13;;;10.10;97.80;;;;;;5095942;28;20187;-47
2022/05/08 02:00:21;;;;;;;20.67;18.57;;;10.10;97.70;;;;;;5098431;28;20579;-46
2022/05/08 02:02:48;;;;;;;19.00;17.50;;;10.10;97.70;;;;;;5099973;28;20184;-47
2022/05/08 02:05:18;;;;;;;19.93;18.13;;;10.10;97.60;;;;;;5100067;28;20421;-47
2022/05/08 02:07:45;;;;;;;19.67;18.03;;;10.10;97.50;;;;;;5099565;28;20411;-46
2022/05/08 02:10:11;;;;;;;18.77;17.07;;;10.10;97.60;;;;;;5099681;28;20419;-46
2022/05/08 02:12:37;;;;;;;19.47;17.87;;;10.10;97.60;;;;;;5099997;28;20875;-47
2022/05/08 02:15:04;;;;;;;19.93;18.13;;;10.10;97.80;;;;;;5099997;28;20425;-46
2022/05/08 02:17:29;;;;;;;19.60;17.80;;;10.10;97.90;;;;;;5100380;28;20414;-46
2022/05/08 02:19:56;;;;;;;19.03;17.50;;;10.00;97.90;;;;;;5099957;28;20426;-46
2022/05/08 02:22:21;;;;;;;18.07;16.50;;;10.00;98.00;;;;;;5101249;28;20176;-46
2022/05/08 02:24:47;;;;;;;17.73;16.40;;;10.00;98.10;;;;;;5100876;28;20422;-47
2022/05/08 02:27:12;;;;;;;19.07;17.17;;;9.90;98.70;;;;;;5100851;28;20242;-46
2022/05/08 02:29:38;;;;;;;20.90;19.10;;;9.90;98.80;;;;;;5100540;28;20184;-47
2022/05/08 02:32:04;;;;;;;19.77;17.87;;;9.90;98.60;;;;;;5100366;28;20571;-47
2022/05/08 02:34:30;;;;;;;18.97;17.23;;;9.80;98.60;;;;;;5100581;28;20183;-47
2022/05/08 02:36:55;;;;;;;20.10;18.20;;;9.80;98.60;;;;;;5100844;28;20472;-46
2022/05/08 02:39:21;;;;;;;19.13;17.33;;;9.80;98.60;;;;;;5100169;28;20173;-46
2022/05/08 02:41:47;;;;;;;19.33;17.73;;;9.80;98.40;;;;;;5100074;28;20176;-46
2022/05/08 02:44:13;;;;;;;18.80;17.20;;;9.80;98.40;;;;;;5100274;28;20493;-47
2022/05/08 02:46:38;;;;;;;19.67;18.00;;;9.70;98.50;;;;;;5100037;28;20287;-46
2022/05/08 02:49:04;;;;;;;19.30;17.50;;;9.70;98.60;;;;;;5100007;28;20195;-47
2022/05/08 02:51:30;;;;;;;18.73;17.03;;;9.70;98.70;;;;;;5081906;28;20189;-47
2022/05/08 02:53:55;;;;;;;20.57;18.70;;;9.70;98.80;;;;;;5100252;28;20457;-46
2022/05/08 02:59:05;;;;;;;20.90;18.87;;;9.70;99.10;;;;;;5099897;28;20180;-46
2022/05/08 03:01:31;;;;;;;20.27;18.43;;;9.70;99.20;;;;;;5100184;28;20411;-47
2022/05/08 03:03:56;;;;;;;18.50;16.90;;;9.60;99.20;;;;;;5100041;28;20188;-47
2022/05/08 03:06:22;;;;;;;18.33;16.73;;;9.60;99.40;;;;;;5100105;28;20602;-47
2022/05/08 03:08:50;;;;;;;19.13;17.13;;;9.60;99.40;;;;;;5099748;28;20443;-46
2022/05/08 03:11:25;;;;;;;18.77;17.17;;;9.60;99.20;;;;;;5098630;28;20173;-46
2022/05/08 03:13:51;;;;;;;19.20;17.40;;;9.60;99.10;;;;;;5099972;28;20450;-47
2022/05/08 03:16:17;;;;;;;20.00;18.30;;;9.50;99.10;;;;;;5081915;28;20828;-46
2022/05/08 03:18:45;;;;;;;20.43;18.67;;;9.50;99.20;;;;;;5099355;28;20713;-46
2022/05/08 03:21:12;;;;;;;19.83;18.03;;;9.50;99.60;;;;;;5099926;28;20403;-47
2022/05/08 03:23:39;;;;;;;20.67;18.87;;;9.50;99.40;;;;;;5100007;28;20419;-47
2022/05/08 03:26:04;;;;;;;19.67;17.80;;;9.50;99.30;;;;;;5099458;28;20433;-47
2022/05/08 03:28:31;;;;;;;19.00;17.20;;;9.40;99.30;;;;;;5099874;28;20410;-47
2022/05/08 03:30:59;;;;;;;20.27;18.30;;;9.40;99.30;;;;;;5099968;28;20790;-46
2022/05/08 03:33:25;;;;;;;19.73;18.03;;;9.30;99.30;;;;;;5099552;28;20506;-47
2022/05/08 03:35:51;;;;;;;18.93;17.37;;;9.30;99.30;;;;;;5099609;28;20406;-47
2022/05/08 03:38:18;;;;;;;18.33;16.83;;;9.30;99.20;;;;;;5099426;28;20409;-47
2022/05/08 03:40:43;;;;;;;19.43;17.60;;;9.30;99.20;;;;;;5100065;28;20189;-46
2022/05/08 03:43:09;;;;;;;18.80;17.20;;;9.30;99.20;;;;;;5099373;28;20422;-47
2022/05/08 03:45:35;;;;;;;21.37;19.33;;;9.20;99.20;;;;;;5081596;28;20185;-47
2022/05/08 03:48:02;;;;;;;19.07;17.47;;;9.20;99.50;;;;;;5099420;28;20177;-46
2022/05/08 03:50:28;;;;;;;19.00;17.37;;;9.20;99.60;;;;;;5098903;28;20431;-47
2022/05/08 03:52:54;;;;;;;18.67;17.00;;;9.10;99.70;;;;;;5098241;28;20467;-49
2022/05/08 03:55:20;;;;;;;18.77;17.03;;;9.20;99.70;;;;;;5097905;28;20933;-44
2022/05/08 03:57:46;;;;;;;18.27;16.73;;;9.10;99.70;;;;;;5097759;28;20500;-45
2022/05/08 04:00:13;;;;;;;19.30;17.60;;;9.20;99.70;;;;;;5096209;28;20601;-45
2022/05/08 04:02:39;;;;;;;17.93;16.27;;;9.20;99.60;;;;;;5097021;28;20208;-45
2022/05/08 04:05:06;;;;;;;18.07;16.57;;;9.10;99.50;;;;;;5096770;28;20769;-46
2022/05/08 04:07:32;;;;;;;19.27;17.53;;;9.20;99.50;;;;;;5097671;28;20472;-45
2022/05/08 04:09:58;;;;;;;19.23;17.63;;;9.10;99.30;;;;;;5098077;28;20700;-46
2022/05/08 04:12:26;;;;;;;17.03;15.73;;;9.10;99.50;;;;;;5098516;28;20193;-45
2022/05/08 04:14:52;;;;;;;19.00;17.20;;;9.10;99.10;;;;;;5080005;28;20538;-45
2022/05/08 04:17:18;;;;;;;17.90;16.40;;;9.00;99.00;;;;;;5093545;28;20453;-45
2022/05/08 04:19:44;;;;;;;18.73;17.13;;;9.00;99.20;;;;;;5098187;28;20826;-46
2022/05/08 04:24:53;;;;;;;18.10;16.47;;;9.10;99.40;;;;;;5082865;28;20593;-46
2022/05/08 04:27:19;;;;;;;20.43;18.63;;;9.10;99.50;;;;;;5097889;28;20427;-46
2022/05/08 04:29:45;;;;;;;18.70;17.00;;;9.10;99.50;;;;;;5097766;28;20189;-45
2022/05/08 04:32:11;;;;;;;19.87;18.17;;;9.10;99.50;;;;;;5098599;28;20790;-46
2022/05/08 04:34:37;;;;;;;19.87;18.17;;;9.10;99.50;;;;;;5080712;28;20546;-45
2022/05/08 04:37:03;;;;;;;19.10;17.50;;;9.10;99.40;;;;;;5098835;28;20179;-46
2022/05/08 04:39:29;;;;;;;20.70;18.80;;;9.10;99.50;;;;;;5080496;28;20441;-46
2022/05/08 04:41:55;;;;;;;18.53;16.93;;;9.10;99.50;;;;;;5098813;28;20411;-46
2022/05/08 04:44:21;;;;;;;20.47;18.60;;;9.10;99.60;;;;;;5098295;28;20185;-46
2022/05/08 04:46:47;;;;;;;20.50;18.70;;;9.10;99.60;;;;;;5098530;28;20241;-46
2022/05/08 04:49:13;;;;;;;20.30;18.60;;;9.10;99.50;;;;;;5098286;28;20545;-45
2022/05/08 04:51:39;;;;;;;18.77;17.27;;;9.10;99.60;;;;;;5098255;28;20192;-45
2022/05/08 04:54:04;;;;;;;21.13;16.90;;;9.10;99.70;;;;;;5097712;28;20587;-46
2022/05/08 04:56:31;;;;;;;20.77;19.07;;;9.20;99.70;;;;;;5098417;28;20169;-46
2022/05/08 04:58:57;;;;;;;19.23;17.53;;;9.20;99.60;;;;;;5098222;28;20173;-46
2022/05/08 05:01:23;;;;;;;19.20;17.43;;;9.30;99.50;;;;;;5098474;28;20418;-45
2022/05/08 05:03:49;;;;;;;20.70;18.60;;;9.30;99.50;;;;;;5098224;28;20430;-45
2022/05/08 05:06:15;;;;;;;18.53;17.00;;;9.40;99.50;;;;;;5098257;28;20411;-45
2022/05/08 05:08:41;;;;;;;19.90;18.10;;;9.40;99.40;;;;;;5098143;28;20438;-46
2022/05/08 05:11:08;;;;;;;19.90;18.20;;;9.50;99.50;;;;;;5097969;28;20558;-45
2022/05/08 05:13:38;;;;;;;18.73;17.23;;;9.50;99.50;;;;;;5080376;28;20222;-45
2022/05/08 05:16:04;;;;;;;20.80;18.60;;;9.60;99.40;;;;;;5097381;28;20548;-45
2022/05/08 05:18:30;;;;;;;19.87;18.07;;;9.70;99.40;;;;;;5097287;28;20422;-45
2022/05/08 05:20:56;;;;;;;20.37;18.40;;;9.70;99.30;;;;;;5098021;28;20422;-45
2022/05/08 05:23:21;;;;;;;20.47;18.70;;;9.70;99.10;;;;;;5079739;28;20436;-46
2022/05/08 05:25:48;;;;;;;19.13;17.43;;;9.80;99.10;;;;;;5098046;28;20187;-46
2022/05/08 05:28:14;;;;;;;19.77;17.87;;;9.80;99.00;;;;;;5097206;28;20606;-46
2022/05/08 05:30:40;;;;;;;19.60;18.00;;;9.90;98.90;;;;;;5096489;28;20554;-45
2022/05/08 05:33:07;;;;;;;21.23;19.43;;;9.80;98.70;;;;;;5097489;28;20518;-46
2022/05/08 05:35:38;;;;;;;20.00;18.10;;;9.80;98.80;;;;;;5084934;28;20181;-45
2022/05/08 05:38:04;;;;;;;19.47;17.77;;;9.90;98.90;;;;;;5103024;28;20403;-45
2022/05/08 05:40:30;;;;;;;20.13;18.53;;;9.90;99.00;;;;;;5103769;28;20435;-45
2022/05/08 05:42:57;;;;;;;20.50;18.80;;;9.90;99.00;;;;;;5103959;28;20425;-45
2022/05/08 05:45:24;;;;;;;19.20;17.40;;;9.90;99.00;;;;;;5104346;28;20180;-45
2022/05/08 05:47:50;;;;;;;20.30;18.50;;;10.00;98.40;;;;;;5104337;28;20414;-45
2022/05/08 05:50:23;;;;;;;19.90;18.30;;;10.10;98.60;;;;;;5104076;28;20858;-46
2022/05/08 05:52:51;;;;;;;20.43;18.73;;;10.20;98.20;;;;;;5103854;28;20508;-45
2022/05/08 05:55:17;;;;;;;18.13;16.53;;;10.30;98.30;;;;;;5104132;28;20707;-46
2022/05/08 05:57:43;;;;;;;21.10;19.40;;;10.40;97.90;;;;;;5104212;28;20415;-46
2022/05/08 06:00:11;;;;;;;19.67;18.07;;;10.50;97.70;;;;;;5104161;28;20430;-45
2022/05/08 06:02:37;;;;;;;19.43;17.73;;;10.60;97.60;;;;;;5104295;28;20532;-45
2022/05/08 06:05:06;;;;;;;18.93;17.43;;;10.70;97.60;;;;;;5103771;28;20436;-46
2022/05/08 06:07:33;;;;;;;21.60;19.63;;;10.70;97.60;;;;;;5103672;28;20746;-46
2022/05/08 06:09:59;;;;;;;20.63;18.97;;;10.80;97.50;;;;;;5102646;28;20715;-46
2022/05/08 06:12:25;;;;;;;20.13;18.37;;;10.90;97.40;;;;;;5103992;28;20458;-45
2022/05/08 06:14:51;;;;;;;19.10;17.50;;;10.90;97.00;;;;;;5085663;28;20442;-45
2022/05/08 06:17:17;;;;;;;20.50;18.80;;;11.00;97.00;;;;;;5104287;28;20169;-45
2022/05/08 06:19:43;;;;;;;19.83;18.13;;;11.00;97.30;;;;;;5103266;28;20443;-46
2022/05/08 06:22:08;;;;;;;19.20;17.63;;;11.10;97.40;;;;;;5102784;28;20425;-46
2022/05/08 06:24:35;;;;;;;18.60;17.00;;;11.20;97.30;;;;;;5102465;28;20430;-46
2022/05/08 06:27:01;;;;;;;20.27;18.57;;;11.30;97.00;;;;;;5102202;28;20242;-46
2022/05/08 06:29:27;;;;;;;19.90;18.40;;;11.40;96.70;;;;;;5102171;28;20436;-45
2022/05/08 06:31:53;;;;;;;21.17;19.27;;;11.60;96.50;;;;;;5102541;28;20474;-46
2022/05/08 06:34:19;;;;;;;18.27;16.73;;;11.60;96.20;;;;;;5102269;28;20259;-46
2022/05/08 06:36:45;;;;;;;18.30;16.90;;;11.70;96.00;;;;;;5102606;28;20495;-46
2022/05/08 06:39:13;;;;;;;17.83;16.23;;;11.80;95.90;;;;;;5083917;28;20220;-46
2022/05/08 06:41:39;;;;;;;19.23;17.60;;;11.90;95.80;;;;;;5101783;28;20442;-46
2022/05/08 06:44:05;;;;;;;19.17;17.60;;;12.10;95.60;;;;;;5100929;28;20842;-46
2022/05/08 06:46:32;;;;;;;18.63;16.70;;;12.20;95.50;;;;;;5098031;28;20418;-45
2022/05/08 06:49:02;;;;;;;18.70;17.10;;;12.30;95.50;;;;;;5098268;28;21011;-46
2022/05/08 06:51:28;;;;;;;18.50;17.00;;;12.40;95.30;;;;;;5097564;28;20410;-46
2022/05/08 06:53:53;;;;;;;18.57;17.07;;;12.50;95.20;;;;;;5080687;28;20443;-46
2022/05/08 06:56:19;;;;;;;18.67;17.17;;;12.70;95.10;;;;;;5099287;28;20811;-46
2022/05/08 07:01:35;;;;;;;18.17;16.60;;;13.00;94.90;;;;;;5100036;28;20177;-46
2022/05/08 07:04:07;;;;;;;17.60;16.20;;;13.30;94.70;;;;;;5099742;28;20824;-44
2022/05/08 07:06:37;;;;;;;17.80;16.30;;;13.50;94.50;;;;;;5099081;28;20408;-44
2022/05/08 07:09:09;;;;;;;18.23;16.73;;;13.70;94.60;;;;;;5098729;28;20423;-42
2022/05/08 07:11:37;;;;;;;19.73;18.10;;;14.00;94.20;;;;;;5082065;28;20420;-43
2022/05/08 07:14:03;;;;;;;19.03;17.43;;;14.20;93.40;;;;;;5099213;28;20421;-43
2022/05/08 07:16:29;;;;;;;19.90;18.10;;;14.30;93.50;;;;;;5099567;28;20448;-44
2022/05/08 07:18:55;;;;;;;18.93;17.33;;;14.40;93.50;;;;;;5099233;28;20427;-44
2022/05/08 07:21:20;;;;;;;17.80;16.33;;;14.60;93.20;;;;;;5080660;28;20431;-45
2022/05/08 07:23:47;;;;;;;18.40;16.90;;;14.70;93.10;;;;;;5098873;28;20240;-44
2022/05/08 07:26:13;;;;;;;17.37;15.90;;;14.90;93.00;;;;;;5098925;28;20242;-47
2022/05/08 07:28:39;;;;;;;18.10;16.70;;;15.00;92.80;;;;;;5081648;28;20452;-45
2022/05/08 07:31:05;;;;;;;17.50;16.10;;;15.20;92.90;;;;;;5077741;28;20797;-47
2022/05/08 07:33:34;;;;;;;16.93;15.23;;;15.50;93.10;;;;;;5058944;28;20460;-45
2022/05/08 07:36:12;;;;;;;15.20;14.00;;;15.70;93.10;;;;;;5077981;28;20260;-42
2022/05/08 07:38:47;;;;;;;17.33;15.37;;;15.90;93.30;;;;;;5077124;28;20860;-44
2022/05/08 07:41:15;;;;;;;14.67;13.57;;;16.20;93.10;;;;;;5077453;28;20859;-44
2022/05/08 07:43:47;;;;;;;15.23;13.73;;;16.40;92.70;;;;;;5077591;28;20495;-44
2022/05/08 07:46:13;;;;;;;12.40;11.37;;;16.70;92.20;;;;;;5060547;28;20410;-45
2022/05/08 07:48:39;;;;;;;15.30;14.10;;;16.90;92.20;;;;;;5082707;28;20583;-44
2022/05/08 07:51:05;;;;;;;13.10;12.00;;;17.10;91.00;;;;;;5079954;28;20439;-45
2022/05/08 07:53:32;;;;;;;13.93;12.70;;;17.30;90.80;;;;;;5098159;28;20539;-45
2022/05/08 07:55:58;;;;;;;13.83;12.60;;;17.50;90.70;;;;;;5079578;28;20565;-44
2022/05/08 07:58:28;;;;;;;12.53;11.30;;;17.70;90.50;;;;;;5077037;28;20503;-43
2022/05/08 08:00:55;;;;;;;11.90;10.90;;;18.00;90.50;;;;;;5097003;28;20411;-47
2022/05/08 08:03:25;;;;;;;10.70;9.90;;;18.20;87.80;;;;;;5096630;28;20420;-44
2022/05/08 08:05:52;;;;;;;11.80;10.70;;;18.30;87.50;;;;;;5079078;28;20416;-44
2022/05/08 08:08:21;;;;;;;12.63;11.50;;;18.40;86.10;;;;;;5095192;28;20830;-43
2022/05/08 08:10:47;;;;;;;12.43;11.43;;;18.50;84.70;;;;;;5095181;28;20424;-46
2022/05/08 08:13:13;;;;;;;13.13;11.93;;;18.40;82.60;;;;;;5095023;28;20473;-46
2022/05/08 08:15:44;;;;;;;13.10;12.00;;;18.40;82.00;;;;;;5077880;28;20479;-44
2022/05/08 08:18:11;;;;;;;10.63;9.83;;;18.40;82.80;;;;;;5096395;28;20413;-45
2022/05/08 08:20:37;;;;;;;11.03;10.13;;;18.50;83.10;;;;;;5095866;28;20478;-43
2022/05/08 08:23:03;;;;;;;11.47;10.57;;;18.60;83.10;;;;;;5096508;28;20479;-49
2022/05/08 08:25:29;;;;;;;12.40;11.40;;;18.80;83.80;;;;;;5096105;28;20442;-42
2022/05/08 08:27:55;;;;;;;10.80;10.00;;;19.00;80.90;;;;;;5096433;28;20465;-44
2022/05/08 08:30:21;;;;;;;12.90;11.80;;;19.00;81.10;;;;;;5095765;28;20518;-43
2022/05/08 08:32:47;;;;;;;10.77;9.97;;;19.10;80.70;;;;;;5095450;28;20465;-44
2022/05/08 08:35:13;;;;;;;11.53;10.53;;;19.30;81.10;;;;;;5095377;28;20181;-44
2022/05/08 08:37:39;;;;;;;11.73;10.83;;;19.50;80.80;;;;;;5096096;28;20583;-43
2022/05/08 08:40:05;;;;;;;12.00;11.00;;;19.70;79.00;;;;;;5095432;28;20461;-46
2022/05/08 08:42:31;;;;;;;12.43;11.40;;;20.10;78.80;;;;;;5096147;28;20182;-46
2022/05/08 08:48:03;;;;;;;10.97;10.03;;;20.80;78.00;;;;;;5095937;28;20440;-46
2022/05/08 08:50:32;;;;;;;10.80;9.87;;;21.10;73.60;;;;;;5096327;28;20784;-48
2022/05/08 08:52:59;;;;;;;11.63;10.63;;;21.30;72.90;;;;;;5095509;28;20458;-45
2022/05/08 08:55:26;;;;;;;10.20;9.27;;;21.30;71.20;;;;;;5096261;28;20426;-44
2022/05/08 08:57:52;;;;;;;10.97;10.07;;;21.40;70.30;;;;;;5079553;28;20465;-46
2022/05/08 09:00:19;;;;;;;10.63;9.80;;;21.60;70.60;;;;;;5061901;28;20821;-46
2022/05/08 09:02:47;;;;;;;10.17;9.37;;;21.80;70.10;;;;;;5097465;28;20423;-44
2022/05/08 09:05:13;;;;;;;10.70;9.90;;;22.20;69.50;;;;;;5097347;28;20461;-46
2022/05/08 09:07:41;;;;;;;11.10;10.10;;;22.30;65.00;;;;;;5097508;28;20826;-44
2022/05/08 09:10:25;;;;;;;10.50;9.57;;;22.40;63.30;;;;;;5077911;28;20436;-45
2022/05/08 09:12:53;;;;;;;10.83;9.83;;;22.40;64.20;;;;;;5096328;28;20455;-43
2022/05/08 09:15:30;;;;;;;9.70;9.00;;;22.60;64.60;;;;;;5096542;28;20458;-45
2022/05/08 09:18:07;;;;;;;11.60;10.70;;;22.80;65.70;;;;;;5096765;28;20448;-45
2022/05/08 09:20:48;;;;;;;12.53;11.40;;;23.00;63.60;;;;;;5095536;28;20424;-45
2022/05/08 09:23:15;;;;;;;10.10;9.30;;;23.20;63.10;;;;;;5095688;28;20408;-45
2022/05/08 09:25:51;;;;;;;12.37;11.47;;;23.50;64.00;;;;;;5077760;28;20502;-43
2022/05/08 09:28:23;;;;;;;10.73;9.90;;;23.70;60.70;;;;;;5078237;28;20507;-46
2022/05/08 09:30:57;;;;;;;10.50;9.70;;;23.80;58.90;;;;;;5078342;28;20812;-44
2022/05/08 09:33:29;;;;;;;10.87;9.93;;;23.60;58.30;;;;;;5096555;28;20884;-46
2022/05/08 09:35:56;;;;;;;11.47;10.60;;;23.50;57.60;;;;;;5097830;28;20415;-43
2022/05/08 09:38:22;;;;;;;9.23;8.50;;;23.40;57.40;;;;;;5077093;28;20491;-44
2022/05/08 09:41:06;;;;;;;10.23;9.33;;;23.60;57.50;;;;;;5095505;28;20449;-47
2022/05/08 09:43:34;;;;;;;10.60;9.70;;;23.90;57.30;;;;;;5077997;28;20432;-46
2022/05/08 09:46:02;;;;;;;11.27;10.27;;;24.00;56.80;;;;;;5097130;28;20453;-44
2022/05/08 09:48:29;;;;;;;9.87;9.07;;;24.30;56.80;;;;;;5078669;28;20422;-44
2022/05/08 09:50:59;;;;;;;9.83;9.03;;;24.40;55.50;;;;;;5096561;28;20411;-47
2022/05/08 09:53:27;;;;;;;9.77;9.07;;;24.50;55.90;;;;;;5096309;28;20462;-43
2022/05/08 09:55:58;;;;;;;10.83;10.03;;;24.70;54.10;;;;;;5095490;28;20505;-44
2022/05/08 09:58:24;;;;;;;8.17;7.53;;;24.90;53.30;;;;;;5094859;28;20497;-43
2022/05/08 10:00:51;;;;;;;9.10;8.40;;;25.10;53.10;;;;;;5077513;28;20505;-45
2022/05/08 10:03:20;;;;;;;9.77;8.87;;;25.40;52.20;;;;;;5093940;28;20417;-43
2022/05/08 10:05:47;;;;;;;8.10;7.50;;;25.80;50.70;;;;;;5095291;28;20974;-44
2022/05/08 10:08:14;;;;;;;8.70;8.03;;;25.90;48.30;;;;;;5095749;28;20529;-43
2022/05/08 10:13:54;;;;;;;9.27;8.33;;;26.30;48.70;;;;;;5080317;28;20781;-45
2022/05/08 10:16:55;;;;;;;10.17;8.77;;;26.40;48.30;;;;;;5095587;28;20403;-43
2022/05/08 10:19:27;;;;;;;6.50;6.10;;;26.20;45.30;;;;;;5095613;28;20428;-44
2022/05/08 10:21:56;;;;;;;8.70;8.00;;;26.10;46.80;;;;;;5097420;28;20414;-47
2022/05/08 10:24:28;;;;;;;8.13;7.40;;;26.50;47.10;;;;;;5078851;28;20431;-45
2022/05/08 10:27:15;;;;;;;7.33;6.73;;;26.60;45.60;;;;;;5078571;28;20472;-45
2022/05/08 10:29:50;;;;;;;8.90;8.20;;;26.80;45.70;;;;;;5078628;28;20847;-45
2022/05/08 10:32:28;;;;;;;9.57;8.87;;;26.90;44.80;;;;;;5077821;28;20466;-45
2022/05/08 10:35:13;;;;;;;8.10;7.40;;;27.10;46.40;;;;;;5076610;28;20435;-42
2022/05/08 10:37:49;;;;;;;7.97;7.37;;;27.10;45.00;;;;;;5059962;28;20415;-42
2022/05/08 10:40:24;;;;;;;8.53;7.77;;;26.90;43.20;;;;;;5077132;28;20448;-47
2022/05/08 10:42:50;;;;;;;7.37;6.77;;;26.30;43.40;;;;;;5077101;28;20705;-46
2022/05/08 10:45:34;;;;;;;8.53;7.83;;;26.20;45.70;;;;;;5076837;28;20433;-44
2022/05/08 10:48:20;;;;;;;8.43;7.73;;;26.10;45.20;;;;;;5077945;28;20407;-46
2022/05/08 10:50:50;;;;;;;8.90;8.10;;;26.20;45.50;;;;;;5078134;28;20434;-45
2022/05/08 10:53:25;;;;;;;8.03;7.43;;;26.50;45.80;;;;;;5079125;28;20581;-47
2022/05/08 10:55:51;;;;;;;9.30;8.60;;;26.90;45.90;;;;;;5079519;28;20407;-42
2022/05/08 10:58:18;;;;;;;9.03;8.43;;;27.40;45.70;;;;;;5078617;28;20424;-43
2022/05/08 11:00:44;;;;;;;8.97;8.23;;;27.90;44.90;;;;;;5079265;28;20493;-44
2022/05/08 11:03:10;;;;;;;8.70;7.90;;;28.50;44.10;;;;;;5079308;28;20415;-46
2022/05/08 11:05:37;;;;;;;9.23;8.53;;;28.80;43.50;;;;;;5078300;28;20182;-46
2022/05/08 11:08:07;;;;;;;9.20;8.60;;;29.10;42.50;;;;;;5079064;28;20174;-45
2022/05/08 11:10:35;;;;;;;9.27;8.57;;;29.10;41.80;;;;;;5079248;28;20441;-45
2022/05/08 11:13:12;;;;;;;6.47;5.97;;;28.90;42.20;;;;;;5078587;28;20555;-45
2022/05/08 11:15:44;;;;;;;6.53;6.13;;;28.90;41.90;;;;;;5078866;28;20426;-43
2022/05/08 11:18:27;;;;;;;6.87;6.37;;;28.70;40.50;;;;;;5079988;28;20419;-44
2022/05/08 11:21:01;;;;;;;7.03;6.40;;;28.10;40.10;;;;;;5097850;28;20491;-43
2022/05/08 11:23:29;;;;;;;5.87;5.43;;;28.50;41.50;;;;;;5099177;28;20411;-45
2022/05/08 11:25:56;;;;;;;6.50;6.00;;;28.90;41.00;;;;;;5099428;28;20418;-43
2022/05/08 11:28:23;;;;;;;5.93;5.43;;;29.20;40.10;;;;;;5099871;28;20822;-42
2022/05/08 11:30:53;;;;;;;6.03;5.43;;;29.70;39.00;;;;;;5080233;28;20525;-43
2022/05/08 11:36:22;;;;;;;5.23;4.73;;;29.20;39.20;;;;;;5097461;28;20418;-43
2022/05/08 11:38:55;;;;;;;5.97;5.37;;;29.40;39.50;;;;;;5080077;28;20403;-44
2022/05/08 11:41:49;;;;;;;5.53;5.03;;;29.70;39.60;;;;;;5080616;28;20438;-43
2022/05/08 11:44:14;;;;;;;5.40;5.00;;;29.80;38.50;;;;;;5084686;28;20971;-42
2022/05/08 11:46:44;;;;;;;5.03;4.63;;;29.50;38.10;;;;;;5098104;28;20428;-43
2022/05/08 11:49:13;;;;;;;5.90;5.43;;;29.50;38.30;;;;;;5080831;28;20211;-43
2022/05/08 11:51:44;;;;;;;6.20;5.60;;;29.50;37.60;;;;;;5080598;28;20506;-44
2022/05/08 11:54:27;;;;;;;6.90;6.30;;;29.30;39.70;;;;;;5079797;28;20845;-43
2022/05/08 11:57:17;;;;;;;6.63;6.03;;;29.00;39.00;;;;;;5097947;28;20422;-46
2022/05/08 11:59:45;;;;;;;6.80;6.30;;;28.60;38.60;;;;;;5082432;28;20423;-43
2022/05/08 12:02:12;;;;;;;6.57;6.00;;;28.00;40.20;;;;;;5096780;28;20707;-44
2022/05/08 12:04:38;;;;;;;6.80;5.30;;;27.70;39.90;;;;;;5097562;28;20516;-46
2022/05/08 12:07:11;;;;;;;6.40;5.90;;;27.70;40.20;;;;;;5096564;28;20675;-42
2022/05/08 12:09:55;;;;;;;6.40;5.90;;;28.00;40.30;;;;;;5097435;28;20493;-43
2022/05/08 12:12:27;;;;;;;6.30;5.80;;;28.40;40.20;;;;;;5096733;28;20594;-44
2022/05/08 12:15:13;;;;;;;6.67;6.03;;;28.90;40.40;;;;;;5079040;28;21144;-46
2022/05/08 12:17:39;;;;;;;5.93;5.40;;;29.70;38.80;;;;;;5079738;28;20686;-43
2022/05/08 12:20:18;;;;;;;4.73;4.33;;;29.80;37.40;;;;;;5097388;28;20418;-46
2022/05/08 12:22:45;;;;;;;6.30;5.90;;;30.00;37.90;;;;;;5079530;28;20279;-46
2022/05/08 12:25:14;;;;;;;6.37;5.77;;;30.10;37.70;;;;;;5078753;28;20432;-44
2022/05/08 12:27:42;;;;;;;5.60;5.20;;;30.20;38.00;;;;;;5097144;28;20483;-45
2022/05/08 12:30:10;;;;;;;6.10;5.60;;;30.10;36.40;;;;;;5098050;28;20523;-42
2022/05/08 12:32:36;;;;;;;6.57;6.07;;;29.40;36.90;;;;;;5097160;28;20735;-48
2022/05/08 12:35:03;;;;;;;8.13;6.37;;;29.10;37.60;;;;;;5097282;28;20479;-43
2022/05/08 12:37:28;;;;;;;6.03;5.13;;;28.80;36.80;;;;;;5096699;28;20828;-44
2022/05/08 12:39:54;;;;;;;5.40;5.00;;;28.40;37.60;;;;;;5096541;28;20415;-44
2022/05/08 12:42:20;;;;;;;5.90;5.50;;;28.10;37.30;;;;;;5097145;28;20188;-45
2022/05/08 12:44:46;;;;;;;6.10;5.50;;;27.60;37.40;;;;;;5096927;28;20395;-42
2022/05/08 12:47:13;;;;;;;5.70;5.30;;;27.50;38.90;;;;;;5097950;28;20455;-43
2022/05/08 12:49:39;;;;;;;5.20;4.80;;;27.40;38.60;;;;;;5097283;28;20538;-45
2022/05/08 12:52:07;;;;;;;5.10;4.70;;;27.80;37.50;;;;;;5079337;28;20558;-43
2022/05/08 12:54:33;;;;;;;4.60;4.27;;;27.80;37.70;;;;;;5097852;28;20423;-46
2022/05/08 12:57:00;;;;;;;4.93;4.53;;;27.80;37.00;;;;;;5097121;28;20435;-43
2022/05/08 13:02:12;;;;;;;6.10;4.70;;;28.50;37.10;;;;;;5095882;28;20438;-42